sensor_id;sensor_type;location;lat;lon;timestamp;P1;durP1;ratioP1;P2;durP2;ratioP2
39022;SDS011;25908;51.984;5.928;2023-05-23T00:00:22;7.85;;;4.47;;
39022;SDS011;25908;51.984;5.928;2023-05-23T00:02:48;8.77;;;4.97;;
39022;SDS011;25908;51.984;5.928;2023-05-23T00:05:14;7.03;;;4.10;;
39022;SDS011;25908;51.984;5.928;2023-05-23T00:07:41;8.20;;;4.10;;
39022;SDS011;25908;51.984;5.928;2023-05-23T00:10:08;7.38;;;4.43;;
39022;SDS011;25908;51.984;5.928;2023-05-23T00:12:34;7.88;;;4.72;;
39022;SDS011;25908;51.984;5.928;2023-05-23T00:15:01;7.90;;;4.57;;
39022;SDS011;25908;51.984;5.928;2023-05-23T00:17:27;7.43;;;4.70;;
39022;SDS011;25908;51.984;5.928;2023-05-23T00:19:52;8.85;;;5.07;;
39022;SDS011;25908;51.984;5.928;2023-05-23T00:22:19;8.07;;;4.80;;
39022;SDS011;25908;51.984;5.928;2023-05-23T00:24:45;8.70;;;4.90;;
39022;SDS011;25908;51.984;5.928;2023-05-23T00:27:11;8.13;;;4.90;;
39022;SDS011;25908;51.984;5.928;2023-05-23T00:29:37;10.27;;;5.93;;
39022;SDS011;25908;51.984;5.928;2023-05-23T00:32:02;10.95;;;6.00;;
39022;SDS011;25908;51.984;5.928;2023-05-23T00:34:28;10.95;;;5.55;;
39022;SDS011;25908;51.984;5.928;2023-05-23T00:36:53;7.88;;;5.03;;
39022;SDS011;25908;51.984;5.928;2023-05-23T00:39:19;9.88;;;5.85;;
39022;SDS011;25908;51.984;5.928;2023-05-23T00:41:48;10.68;;;5.53;;
39022;SDS011;25908;51.984;5.928;2023-05-23T00:44:14;9.73;;;6.07;;
39022;SDS011;25908;51.984;5.928;2023-05-23T00:46:40;10.60;;;6.18;;
39022;SDS011;25908;51.984;5.928;2023-05-23T00:49:09;11.18;;;6.47;;
39022;SDS011;25908;51.984;5.928;2023-05-23T00:51:36;11.27;;;6.43;;
39022;SDS011;25908;51.984;5.928;2023-05-23T00:54:03;9.38;;;6.15;;
39022;SDS011;25908;51.984;5.928;2023-05-23T00:56:29;12.90;;;6.40;;
39022;SDS011;25908;51.984;5.928;2023-05-23T00:58:55;13.63;;;6.85;;
39022;SDS011;25908;51.984;5.928;2023-05-23T01:01:22;9.38;;;6.20;;
39022;SDS011;25908;51.984;5.928;2023-05-23T01:03:48;12.48;;;5.75;;
39022;SDS011;25908;51.984;5.928;2023-05-23T01:06:14;10.93;;;6.55;;
39022;SDS011;25908;51.984;5.928;2023-05-23T01:08:41;12.77;;;6.38;;
39022;SDS011;25908;51.984;5.928;2023-05-23T01:11:11;8.65;;;5.28;;
39022;SDS011;25908;51.984;5.928;2023-05-23T01:13:57;10.65;;;6.15;;
39022;SDS011;25908;51.984;5.928;2023-05-23T01:19:16;9.90;;;5.57;;
39022;SDS011;25908;51.984;5.928;2023-05-23T01:21:53;9.57;;;5.38;;
39022;SDS011;25908;51.984;5.928;2023-05-23T01:24:35;12.18;;;5.80;;
39022;SDS011;25908;51.984;5.928;2023-05-23T01:27:07;12.63;;;5.35;;
39022;SDS011;25908;51.984;5.928;2023-05-23T01:29:59;9.68;;;5.18;;
39022;SDS011;25908;51.984;5.928;2023-05-23T01:32:28;8.75;;;5.38;;
39022;SDS011;25908;51.984;5.928;2023-05-23T01:34:56;8.68;;;5.10;;
39022;SDS011;25908;51.984;5.928;2023-05-23T01:37:23;8.88;;;5.18;;
39022;SDS011;25908;51.984;5.928;2023-05-23T01:39:48;8.40;;;5.07;;
39022;SDS011;25908;51.984;5.928;2023-05-23T01:42:14;9.50;;;5.32;;
39022;SDS011;25908;51.984;5.928;2023-05-23T01:44:40;9.75;;;5.55;;
39022;SDS011;25908;51.984;5.928;2023-05-23T01:47:07;9.10;;;5.50;;
39022;SDS011;25908;51.984;5.928;2023-05-23T01:49:34;10.20;;;5.90;;
39022;SDS011;25908;51.984;5.928;2023-05-23T01:52:01;9.95;;;5.80;;
39022;SDS011;25908;51.984;5.928;2023-05-23T01:54:27;7.95;;;5.25;;
39022;SDS011;25908;51.984;5.928;2023-05-23T01:56:55;6.85;;;4.32;;
39022;SDS011;25908;51.984;5.928;2023-05-23T01:59:21;7.95;;;4.93;;
39022;SDS011;25908;51.984;5.928;2023-05-23T02:01:47;10.73;;;5.00;;
39022;SDS011;25908;51.984;5.928;2023-05-23T02:04:13;7.93;;;4.80;;
39022;SDS011;25908;51.984;5.928;2023-05-23T02:06:39;7.57;;;4.90;;
39022;SDS011;25908;51.984;5.928;2023-05-23T02:09:06;8.63;;;5.68;;
39022;SDS011;25908;51.984;5.928;2023-05-23T02:11:32;9.60;;;5.25;;
39022;SDS011;25908;51.984;5.928;2023-05-23T02:13:58;11.30;;;5.57;;
39022;SDS011;25908;51.984;5.928;2023-05-23T02:16:23;8.35;;;4.90;;
39022;SDS011;25908;51.984;5.928;2023-05-23T02:18:50;9.95;;;5.10;;
39022;SDS011;25908;51.984;5.928;2023-05-23T02:21:17;12.45;;;5.65;;
39022;SDS011;25908;51.984;5.928;2023-05-23T02:23:42;8.45;;;5.00;;
39022;SDS011;25908;51.984;5.928;2023-05-23T02:26:08;10.02;;;5.47;;
39022;SDS011;25908;51.984;5.928;2023-05-23T02:28:33;7.40;;;4.88;;
39022;SDS011;25908;51.984;5.928;2023-05-23T02:30:59;9.48;;;5.38;;
39022;SDS011;25908;51.984;5.928;2023-05-23T02:33:25;8.88;;;5.25;;
39022;SDS011;25908;51.984;5.928;2023-05-23T02:35:51;7.97;;;4.75;;
39022;SDS011;25908;51.984;5.928;2023-05-23T02:38:16;11.02;;;5.50;;
39022;SDS011;25908;51.984;5.928;2023-05-23T02:40:44;8.90;;;4.95;;
39022;SDS011;25908;51.984;5.928;2023-05-23T02:43:10;9.25;;;4.93;;
39022;SDS011;25908;51.984;5.928;2023-05-23T02:45:35;9.57;;;5.18;;
39022;SDS011;25908;51.984;5.928;2023-05-23T02:48:01;8.75;;;5.00;;
39022;SDS011;25908;51.984;5.928;2023-05-23T02:50:26;8.85;;;5.40;;
39022;SDS011;25908;51.984;5.928;2023-05-23T02:52:52;12.23;;;6.70;;
39022;SDS011;25908;51.984;5.928;2023-05-23T02:55:17;10.30;;;6.15;;
39022;SDS011;25908;51.984;5.928;2023-05-23T02:57:43;11.10;;;5.72;;
39022;SDS011;25908;51.984;5.928;2023-05-23T03:00:09;8.52;;;5.07;;
39022;SDS011;25908;51.984;5.928;2023-05-23T03:02:35;11.95;;;6.05;;
39022;SDS011;25908;51.984;5.928;2023-05-23T03:05:01;9.63;;;6.38;;
39022;SDS011;25908;51.984;5.928;2023-05-23T03:07:27;10.43;;;5.60;;
39022;SDS011;25908;51.984;5.928;2023-05-23T03:09:54;12.55;;;5.68;;
39022;SDS011;25908;51.984;5.928;2023-05-23T03:12:20;9.25;;;5.30;;
39022;SDS011;25908;51.984;5.928;2023-05-23T03:14:45;9.95;;;5.30;;
39022;SDS011;25908;51.984;5.928;2023-05-23T03:17:12;12.10;;;6.47;;
39022;SDS011;25908;51.984;5.928;2023-05-23T03:19:37;11.75;;;5.93;;
39022;SDS011;25908;51.984;5.928;2023-05-23T03:22:03;8.60;;;4.88;;
39022;SDS011;25908;51.984;5.928;2023-05-23T03:24:29;8.07;;;4.90;;
39022;SDS011;25908;51.984;5.928;2023-05-23T03:26:55;9.77;;;4.68;;
39022;SDS011;25908;51.984;5.928;2023-05-23T03:29:21;7.47;;;4.40;;
39022;SDS011;25908;51.984;5.928;2023-05-23T03:31:47;9.23;;;4.70;;
39022;SDS011;25908;51.984;5.928;2023-05-23T03:34:12;11.38;;;4.85;;
39022;SDS011;25908;51.984;5.928;2023-05-23T03:36:38;7.57;;;4.65;;
39022;SDS011;25908;51.984;5.928;2023-05-23T03:39:04;7.75;;;4.38;;
39022;SDS011;25908;51.984;5.928;2023-05-23T03:41:30;8.75;;;4.55;;
39022;SDS011;25908;51.984;5.928;2023-05-23T03:43:55;7.97;;;4.20;;
39022;SDS011;25908;51.984;5.928;2023-05-23T03:46:21;7.90;;;4.00;;
39022;SDS011;25908;51.984;5.928;2023-05-23T03:48:46;6.82;;;3.88;;
39022;SDS011;25908;51.984;5.928;2023-05-23T03:51:12;7.22;;;3.88;;
39022;SDS011;25908;51.984;5.928;2023-05-23T03:53:38;9.30;;;4.78;;
39022;SDS011;25908;51.984;5.928;2023-05-23T03:56:03;8.30;;;4.53;;
39022;SDS011;25908;51.984;5.928;2023-05-23T03:58:29;7.90;;;4.13;;
39022;SDS011;25908;51.984;5.928;2023-05-23T04:00:55;8.48;;;4.40;;
39022;SDS011;25908;51.984;5.928;2023-05-23T04:03:20;7.80;;;4.80;;
39022;SDS011;25908;51.984;5.928;2023-05-23T04:05:46;8.43;;;4.43;;
39022;SDS011;25908;51.984;5.928;2023-05-23T04:08:11;8.75;;;5.07;;
39022;SDS011;25908;51.984;5.928;2023-05-23T04:10:37;10.18;;;5.30;;
39022;SDS011;25908;51.984;5.928;2023-05-23T04:13:02;7.45;;;4.70;;
39022;SDS011;25908;51.984;5.928;2023-05-23T04:15:28;7.50;;;4.25;;
39022;SDS011;25908;51.984;5.928;2023-05-23T04:17:54;9.07;;;4.50;;
39022;SDS011;25908;51.984;5.928;2023-05-23T04:20:20;9.93;;;5.20;;
39022;SDS011;25908;51.984;5.928;2023-05-23T04:22:46;8.88;;;4.32;;
39022;SDS011;25908;51.984;5.928;2023-05-23T04:25:11;9.82;;;4.85;;
39022;SDS011;25908;51.984;5.928;2023-05-23T04:27:37;9.68;;;4.50;;
39022;SDS011;25908;51.984;5.928;2023-05-23T04:30:04;10.25;;;4.32;;
39022;SDS011;25908;51.984;5.928;2023-05-23T04:32:32;11.27;;;5.10;;
39022;SDS011;25908;51.984;5.928;2023-05-23T04:34:58;11.98;;;6.25;;
39022;SDS011;25908;51.984;5.928;2023-05-23T04:37:26;11.52;;;6.00;;
39022;SDS011;25908;51.984;5.928;2023-05-23T04:39:52;10.98;;;5.85;;
39022;SDS011;25908;51.984;5.928;2023-05-23T04:42:17;14.30;;;6.20;;
39022;SDS011;25908;51.984;5.928;2023-05-23T04:44:48;12.90;;;6.45;;
39022;SDS011;25908;51.984;5.928;2023-05-23T04:47:14;12.98;;;6.18;;
39022;SDS011;25908;51.984;5.928;2023-05-23T04:49:40;13.55;;;5.38;;
39022;SDS011;25908;51.984;5.928;2023-05-23T04:52:06;14.57;;;6.05;;
39022;SDS011;25908;51.984;5.928;2023-05-23T04:54:31;12.93;;;5.85;;
39022;SDS011;25908;51.984;5.928;2023-05-23T04:56:57;8.85;;;5.22;;
39022;SDS011;25908;51.984;5.928;2023-05-23T04:59:23;13.13;;;5.97;;
39022;SDS011;25908;51.984;5.928;2023-05-23T05:01:48;12.15;;;6.20;;
39022;SDS011;25908;51.984;5.928;2023-05-23T05:04:14;12.90;;;5.55;;
39022;SDS011;25908;51.984;5.928;2023-05-23T05:06:40;13.93;;;5.82;;
39022;SDS011;25908;51.984;5.928;2023-05-23T05:09:06;11.80;;;5.68;;
39022;SDS011;25908;51.984;5.928;2023-05-23T05:11:31;12.27;;;5.63;;
39022;SDS011;25908;51.984;5.928;2023-05-23T05:13:57;10.82;;;5.50;;
39022;SDS011;25908;51.984;5.928;2023-05-23T05:16:23;13.35;;;5.53;;
39022;SDS011;25908;51.984;5.928;2023-05-23T05:18:48;14.98;;;5.93;;
39022;SDS011;25908;51.984;5.928;2023-05-23T05:21:14;11.95;;;5.90;;
39022;SDS011;25908;51.984;5.928;2023-05-23T05:23:39;12.40;;;5.60;;
39022;SDS011;25908;51.984;5.928;2023-05-23T05:26:05;13.68;;;5.32;;
39022;SDS011;25908;51.984;5.928;2023-05-23T05:28:32;10.40;;;5.55;;
39022;SDS011;25908;51.984;5.928;2023-05-23T05:30:57;13.25;;;5.70;;
39022;SDS011;25908;51.984;5.928;2023-05-23T05:33:23;11.13;;;5.55;;
39022;SDS011;25908;51.984;5.928;2023-05-23T05:35:49;11.25;;;5.20;;
39022;SDS011;25908;51.984;5.928;2023-05-23T05:38:17;14.02;;;5.40;;
39022;SDS011;25908;51.984;5.928;2023-05-23T05:40:43;12.23;;;5.28;;
39022;SDS011;25908;51.984;5.928;2023-05-23T05:43:09;7.82;;;4.38;;
39022;SDS011;25908;51.984;5.928;2023-05-23T05:45:35;10.50;;;4.57;;
39022;SDS011;25908;51.984;5.928;2023-05-23T05:48:00;12.77;;;4.38;;
39022;SDS011;25908;51.984;5.928;2023-05-23T05:50:26;14.45;;;4.97;;
39022;SDS011;25908;51.984;5.928;2023-05-23T05:52:52;10.13;;;4.40;;
39022;SDS011;25908;51.984;5.928;2023-05-23T05:55:17;12.07;;;4.30;;
39022;SDS011;25908;51.984;5.928;2023-05-23T05:57:43;12.43;;;4.45;;
39022;SDS011;25908;51.984;5.928;2023-05-23T06:00:09;9.93;;;4.22;;
39022;SDS011;25908;51.984;5.928;2023-05-23T06:02:39;10.02;;;4.45;;
39022;SDS011;25908;51.984;5.928;2023-05-23T06:05:05;9.82;;;4.35;;
39022;SDS011;25908;51.984;5.928;2023-05-23T06:07:36;11.63;;;4.70;;
39022;SDS011;25908;51.984;5.928;2023-05-23T06:10:04;11.98;;;4.47;;
39022;SDS011;25908;51.984;5.928;2023-05-23T06:12:31;10.00;;;4.63;;
39022;SDS011;25908;51.984;5.928;2023-05-23T06:14:57;8.90;;;3.92;;
39022;SDS011;25908;51.984;5.928;2023-05-23T06:17:22;8.68;;;4.00;;
39022;SDS011;25908;51.984;5.928;2023-05-23T06:19:48;8.23;;;4.47;;
39022;SDS011;25908;51.984;5.928;2023-05-23T06:22:13;8.00;;;3.38;;
39022;SDS011;25908;51.984;5.928;2023-05-23T06:24:39;9.80;;;4.15;;
39022;SDS011;25908;51.984;5.928;2023-05-23T06:27:04;8.98;;;3.97;;
39022;SDS011;25908;51.984;5.928;2023-05-23T06:29:30;7.88;;;3.40;;
39022;SDS011;25908;51.984;5.928;2023-05-23T06:31:56;10.25;;;4.07;;
39022;SDS011;25908;51.984;5.928;2023-05-23T06:34:21;13.30;;;3.58;;
39022;SDS011;25908;51.984;5.928;2023-05-23T06:36:47;11.23;;;3.92;;
39022;SDS011;25908;51.984;5.928;2023-05-23T06:39:13;13.15;;;4.03;;
39022;SDS011;25908;51.984;5.928;2023-05-23T06:41:38;8.25;;;3.80;;
39022;SDS011;25908;51.984;5.928;2023-05-23T06:44:04;8.48;;;3.63;;
39022;SDS011;25908;51.984;5.928;2023-05-23T06:46:30;9.30;;;3.92;;
39022;SDS011;25908;51.984;5.928;2023-05-23T06:48:56;10.05;;;3.92;;
39022;SDS011;25908;51.984;5.928;2023-05-23T06:51:21;8.80;;;3.35;;
39022;SDS011;25908;51.984;5.928;2023-05-23T06:53:47;9.30;;;4.20;;
39022;SDS011;25908;51.984;5.928;2023-05-23T06:56:12;19.90;;;4.63;;
39022;SDS011;25908;51.984;5.928;2023-05-23T06:58:38;10.70;;;4.20;;
39022;SDS011;25908;51.984;5.928;2023-05-23T07:01:04;10.38;;;4.75;;
39022;SDS011;25908;51.984;5.928;2023-05-23T07:03:30;9.88;;;4.55;;
39022;SDS011;25908;51.984;5.928;2023-05-23T07:05:55;11.48;;;4.47;;
39022;SDS011;25908;51.984;5.928;2023-05-23T07:08:21;11.43;;;4.32;;
39022;SDS011;25908;51.984;5.928;2023-05-23T07:10:46;13.88;;;4.10;;
39022;SDS011;25908;51.984;5.928;2023-05-23T07:13:12;10.80;;;3.80;;
39022;SDS011;25908;51.984;5.928;2023-05-23T07:15:37;9.50;;;4.15;;
39022;SDS011;25908;51.984;5.928;2023-05-23T07:18:03;9.18;;;3.70;;
39022;SDS011;25908;51.984;5.928;2023-05-23T07:20:29;11.68;;;3.25;;
39022;SDS011;25908;51.984;5.928;2023-05-23T07:22:56;7.82;;;3.63;;
39022;SDS011;25908;51.984;5.928;2023-05-23T07:25:21;7.38;;;3.80;;
39022;SDS011;25908;51.984;5.928;2023-05-23T07:27:47;10.95;;;3.83;;
39022;SDS011;25908;51.984;5.928;2023-05-23T07:30:13;7.50;;;3.72;;
39022;SDS011;25908;51.984;5.928;2023-05-23T07:32:40;9.85;;;3.70;;
39022;SDS011;25908;51.984;5.928;2023-05-23T07:35:06;9.25;;;4.35;;
39022;SDS011;25908;51.984;5.928;2023-05-23T07:37:31;7.97;;;3.70;;
39022;SDS011;25908;51.984;5.928;2023-05-23T07:39:57;11.90;;;3.70;;
39022;SDS011;25908;51.984;5.928;2023-05-23T07:42:22;6.88;;;3.35;;
39022;SDS011;25908;51.984;5.928;2023-05-23T07:44:48;8.45;;;3.53;;
39022;SDS011;25908;51.984;5.928;2023-05-23T07:47:13;5.28;;;3.30;;
39022;SDS011;25908;51.984;5.928;2023-05-23T07:49:39;8.68;;;3.75;;
39022;SDS011;25908;51.984;5.928;2023-05-23T07:52:05;7.45;;;3.50;;
39022;SDS011;25908;51.984;5.928;2023-05-23T07:54:31;7.65;;;3.42;;
39022;SDS011;25908;51.984;5.928;2023-05-23T07:56:56;6.78;;;3.25;;
39022;SDS011;25908;51.984;5.928;2023-05-23T07:59:22;7.28;;;3.50;;
39022;SDS011;25908;51.984;5.928;2023-05-23T08:01:47;8.35;;;2.90;;
39022;SDS011;25908;51.984;5.928;2023-05-23T08:04:15;9.43;;;3.05;;
39022;SDS011;25908;51.984;5.928;2023-05-23T08:06:41;7.63;;;2.90;;
39022;SDS011;25908;51.984;5.928;2023-05-23T08:09:06;6.30;;;2.40;;
39022;SDS011;25908;51.984;5.928;2023-05-23T08:11:33;7.30;;;3.58;;
39022;SDS011;25908;51.984;5.928;2023-05-23T08:13:59;6.88;;;2.38;;
39022;SDS011;25908;51.984;5.928;2023-05-23T08:16:25;6.28;;;2.13;;
39022;SDS011;25908;51.984;5.928;2023-05-23T08:18:51;5.78;;;2.35;;
39022;SDS011;25908;51.984;5.928;2023-05-23T08:21:17;6.45;;;2.20;;
39022;SDS011;25908;51.984;5.928;2023-05-23T08:23:43;6.38;;;2.20;;
39022;SDS011;25908;51.984;5.928;2023-05-23T08:26:08;8.07;;;2.10;;
39022;SDS011;25908;51.984;5.928;2023-05-23T08:28:34;8.13;;;2.47;;
39022;SDS011;25908;51.984;5.928;2023-05-23T08:31:00;11.40;;;2.65;;
39022;SDS011;25908;51.984;5.928;2023-05-23T08:33:25;5.78;;;1.85;;
39022;SDS011;25908;51.984;5.928;2023-05-23T08:35:51;7.10;;;1.95;;
39022;SDS011;25908;51.984;5.928;2023-05-23T08:38:16;7.35;;;2.25;;
39022;SDS011;25908;51.984;5.928;2023-05-23T08:40:48;5.78;;;1.90;;
39022;SDS011;25908;51.984;5.928;2023-05-23T08:43:15;8.20;;;2.40;;
39022;SDS011;25908;51.984;5.928;2023-05-23T08:45:41;8.23;;;2.60;;
39022;SDS011;25908;51.984;5.928;2023-05-23T08:48:07;8.43;;;2.38;;
39022;SDS011;25908;51.984;5.928;2023-05-23T08:50:37;8.52;;;2.20;;
39022;SDS011;25908;51.984;5.928;2023-05-23T08:53:04;6.28;;;1.85;;
39022;SDS011;25908;51.984;5.928;2023-05-23T08:55:33;10.88;;;2.10;;
39022;SDS011;25908;51.984;5.928;2023-05-23T08:57:59;9.07;;;1.92;;
39022;SDS011;25908;51.984;5.928;2023-05-23T09:00:25;8.50;;;2.30;;
39022;SDS011;25908;51.984;5.928;2023-05-23T09:02:52;7.43;;;2.45;;
39022;SDS011;25908;51.984;5.928;2023-05-23T09:05:18;9.95;;;2.33;;
39022;SDS011;25908;51.984;5.928;2023-05-23T09:07:45;9.57;;;2.33;;
39022;SDS011;25908;51.984;5.928;2023-05-23T09:10:15;8.95;;;2.15;;
39022;SDS011;25908;51.984;5.928;2023-05-23T09:12:44;7.53;;;2.03;;
39022;SDS011;25908;51.984;5.928;2023-05-23T09:15:10;7.32;;;2.03;;
39022;SDS011;25908;51.984;5.928;2023-05-23T09:17:36;9.30;;;2.28;;
39022;SDS011;25908;51.984;5.928;2023-05-23T09:20:02;9.02;;;2.05;;
39022;SDS011;25908;51.984;5.928;2023-05-23T09:22:34;7.18;;;2.20;;
39022;SDS011;25908;51.984;5.928;2023-05-23T09:24:59;7.03;;;2.40;;
39022;SDS011;25908;51.984;5.928;2023-05-23T09:27:26;8.18;;;1.88;;
39022;SDS011;25908;51.984;5.928;2023-05-23T09:29:51;7.40;;;2.08;;
39022;SDS011;25908;51.984;5.928;2023-05-23T09:32:17;9.13;;;2.28;;
39022;SDS011;25908;51.984;5.928;2023-05-23T09:34:54;8.00;;;2.78;;
39022;SDS011;25908;51.984;5.928;2023-05-23T09:37:31;6.97;;;2.25;;
39022;SDS011;25908;51.984;5.928;2023-05-23T09:39:59;9.77;;;3.05;;
39022;SDS011;25908;51.984;5.928;2023-05-23T09:42:30;9.02;;;2.65;;
39022;SDS011;25908;51.984;5.928;2023-05-23T09:44:58;8.60;;;2.47;;
39022;SDS011;25908;51.984;5.928;2023-05-23T09:47:24;5.97;;;1.92;;
39022;SDS011;25908;51.984;5.928;2023-05-23T09:49:50;9.98;;;2.45;;
39022;SDS011;25908;51.984;5.928;2023-05-23T09:52:16;8.13;;;2.13;;
39022;SDS011;25908;51.984;5.928;2023-05-23T09:54:44;6.65;;;2.42;;
39022;SDS011;25908;51.984;5.928;2023-05-23T09:57:10;11.32;;;2.90;;
39022;SDS011;25908;51.984;5.928;2023-05-23T09:59:38;12.18;;;2.63;;
39022;SDS011;25908;51.984;5.928;2023-05-23T10:02:06;9.90;;;2.38;;
39022;SDS011;25908;51.984;5.928;2023-05-23T10:04:34;8.95;;;2.17;;
39022;SDS011;25908;51.984;5.928;2023-05-23T10:07:20;7.75;;;2.42;;
39022;SDS011;25908;51.984;5.928;2023-05-23T10:09:51;7.68;;;1.92;;
39022;SDS011;25908;51.984;5.928;2023-05-23T10:14:48;11.18;;;1.98;;
39022;SDS011;25908;51.984;5.928;2023-05-23T10:17:18;7.97;;;2.10;;
39022;SDS011;25908;51.984;5.928;2023-05-23T10:20:03;9.85;;;2.50;;
39022;SDS011;25908;51.984;5.928;2023-05-23T10:22:37;9.45;;;2.60;;
39022;SDS011;25908;51.984;5.928;2023-05-23T10:25:04;5.88;;;1.80;;
39022;SDS011;25908;51.984;5.928;2023-05-23T10:27:32;5.40;;;1.75;;
39022;SDS011;25908;51.984;5.928;2023-05-23T10:29:58;7.30;;;2.95;;
39022;SDS011;25908;51.984;5.928;2023-05-23T10:32:25;6.97;;;2.08;;
39022;SDS011;25908;51.984;5.928;2023-05-23T10:35:03;4.93;;;1.83;;
39022;SDS011;25908;51.984;5.928;2023-05-23T10:38:15;4.85;;;1.58;;
39022;SDS011;25908;51.984;5.928;2023-05-23T10:43:43;5.50;;;2.03;;
39022;SDS011;25908;51.984;5.928;2023-05-23T10:49:15;8.25;;;2.15;;
39022;SDS011;25908;51.984;5.928;2023-05-23T10:51:41;5.07;;;2.00;;
39022;SDS011;25908;51.984;5.928;2023-05-23T10:54:09;5.15;;;1.55;;
39022;SDS011;25908;51.984;5.928;2023-05-23T10:56:36;7.05;;;2.20;;
39022;SDS011;25908;51.984;5.928;2023-05-23T10:59:04;7.45;;;2.15;;
39022;SDS011;25908;51.984;5.928;2023-05-23T11:01:30;7.22;;;1.98;;
39022;SDS011;25908;51.984;5.928;2023-05-23T11:03:56;7.53;;;1.90;;
39022;SDS011;25908;51.984;5.928;2023-05-23T11:06:43;11.05;;;2.33;;
39022;SDS011;25908;51.984;5.928;2023-05-23T11:16:56;7.18;;;2.28;;
39022;SDS011;25908;51.984;5.928;2023-05-23T11:19:23;10.68;;;2.47;;
39022;SDS011;25908;51.984;5.928;2023-05-23T11:21:52;6.63;;;2.03;;
39022;SDS011;25908;51.984;5.928;2023-05-23T11:27:17;6.57;;;1.88;;
39022;SDS011;25908;51.984;5.928;2023-05-23T11:30:01;6.20;;;1.73;;
39022;SDS011;25908;51.984;5.928;2023-05-23T11:32:31;9.50;;;1.95;;
39022;SDS011;25908;51.984;5.928;2023-05-23T11:35:04;10.27;;;2.08;;
39022;SDS011;25908;51.984;5.928;2023-05-23T11:37:34;5.63;;;2.00;;
39022;SDS011;25908;51.984;5.928;2023-05-23T11:42:50;7.85;;;2.13;;
39022;SDS011;25908;51.984;5.928;2023-05-23T11:45:19;6.05;;;1.80;;
39022;SDS011;25908;51.984;5.928;2023-05-23T11:47:46;7.90;;;2.10;;
39022;SDS011;25908;51.984;5.928;2023-05-23T11:50:12;6.13;;;1.85;;
39022;SDS011;25908;51.984;5.928;2023-05-23T11:52:37;8.13;;;2.28;;
39022;SDS011;25908;51.984;5.928;2023-05-23T11:55:03;7.50;;;2.25;;
39022;SDS011;25908;51.984;5.928;2023-05-23T11:57:30;11.27;;;2.35;;
39022;SDS011;25908;51.984;5.928;2023-05-23T11:59:56;8.48;;;2.35;;
39022;SDS011;25908;51.984;5.928;2023-05-23T12:02:21;6.85;;;1.88;;
39022;SDS011;25908;51.984;5.928;2023-05-23T12:04:47;8.82;;;2.03;;
39022;SDS011;25908;51.984;5.928;2023-05-23T12:07:13;6.25;;;2.13;;
39022;SDS011;25908;51.984;5.928;2023-05-23T12:09:44;7.13;;;2.00;;
39022;SDS011;25908;51.984;5.928;2023-05-23T12:12:11;7.05;;;1.80;;
39022;SDS011;25908;51.984;5.928;2023-05-23T12:14:37;9.23;;;2.28;;
39022;SDS011;25908;51.984;5.928;2023-05-23T12:17:08;7.47;;;1.95;;
39022;SDS011;25908;51.984;5.928;2023-05-23T12:19:37;6.00;;;1.73;;
39022;SDS011;25908;51.984;5.928;2023-05-23T12:22:06;7.45;;;2.13;;
39022;SDS011;25908;51.984;5.928;2023-05-23T12:24:32;11.20;;;2.20;;
39022;SDS011;25908;51.984;5.928;2023-05-23T12:26:58;10.73;;;1.80;;
39022;SDS011;25908;51.984;5.928;2023-05-23T12:29:32;5.43;;;1.42;;
39022;SDS011;25908;51.984;5.928;2023-05-23T12:31:59;4.90;;;1.70;;
39022;SDS011;25908;51.984;5.928;2023-05-23T12:34:25;6.28;;;1.65;;
39022;SDS011;25908;51.984;5.928;2023-05-23T12:36:55;7.18;;;1.77;;
39022;SDS011;25908;51.984;5.928;2023-05-23T12:39:25;4.43;;;1.60;;
39022;SDS011;25908;51.984;5.928;2023-05-23T12:41:54;5.00;;;1.73;;
39022;SDS011;25908;51.984;5.928;2023-05-23T12:44:32;6.25;;;1.83;;
39022;SDS011;25908;51.984;5.928;2023-05-23T12:46:57;6.15;;;2.58;;
39022;SDS011;25908;51.984;5.928;2023-05-23T12:49:23;5.88;;;1.63;;
39022;SDS011;25908;51.984;5.928;2023-05-23T12:51:49;9.00;;;2.10;;
39022;SDS011;25908;51.984;5.928;2023-05-23T12:54:14;4.53;;;1.52;;
39022;SDS011;25908;51.984;5.928;2023-05-23T12:56:40;5.45;;;1.50;;
39022;SDS011;25908;51.984;5.928;2023-05-23T12:59:05;5.10;;;1.38;;
39022;SDS011;25908;51.984;5.928;2023-05-23T13:01:31;6.63;;;1.75;;
39022;SDS011;25908;51.984;5.928;2023-05-23T13:03:59;5.07;;;1.80;;
39022;SDS011;25908;51.984;5.928;2023-05-23T13:06:25;7.45;;;2.00;;
39022;SDS011;25908;51.984;5.928;2023-05-23T13:08:51;5.82;;;1.73;;
39022;SDS011;25908;51.984;5.928;2023-05-23T13:11:18;4.47;;;1.65;;
39022;SDS011;25908;51.984;5.928;2023-05-23T13:13:46;5.78;;;1.60;;
39022;SDS011;25908;51.984;5.928;2023-05-23T13:16:12;6.53;;;1.80;;
39022;SDS011;25908;51.984;5.928;2023-05-23T13:18:38;7.32;;;1.88;;
39022;SDS011;25908;51.984;5.928;2023-05-23T13:21:03;5.70;;;1.67;;
39022;SDS011;25908;51.984;5.928;2023-05-23T13:23:30;5.60;;;1.70;;
39022;SDS011;25908;51.984;5.928;2023-05-23T13:25:56;5.80;;;1.58;;
39022;SDS011;25908;51.984;5.928;2023-05-23T13:28:22;4.97;;;1.40;;
39022;SDS011;25908;51.984;5.928;2023-05-23T13:30:47;7.40;;;1.50;;
39022;SDS011;25908;51.984;5.928;2023-05-23T13:33:13;5.32;;;1.65;;
39022;SDS011;25908;51.984;5.928;2023-05-23T13:35:38;5.70;;;1.75;;
39022;SDS011;25908;51.984;5.928;2023-05-23T13:38:04;5.85;;;1.60;;
39022;SDS011;25908;51.984;5.928;2023-05-23T13:40:30;6.60;;;1.63;;
39022;SDS011;25908;51.984;5.928;2023-05-23T13:42:55;6.47;;;1.42;;
39022;SDS011;25908;51.984;5.928;2023-05-23T13:45:21;4.60;;;1.55;;
39022;SDS011;25908;51.984;5.928;2023-05-23T13:47:47;9.32;;;1.65;;
39022;SDS011;25908;51.984;5.928;2023-05-23T13:50:12;7.25;;;1.88;;
39022;SDS011;25908;51.984;5.928;2023-05-23T13:52:38;7.15;;;1.63;;
39022;SDS011;25908;51.984;5.928;2023-05-23T13:55:04;7.47;;;2.28;;
39022;SDS011;25908;51.984;5.928;2023-05-23T13:57:30;6.40;;;1.75;;
39022;SDS011;25908;51.984;5.928;2023-05-23T13:59:56;8.00;;;1.98;;
39022;SDS011;25908;51.984;5.928;2023-05-23T14:02:21;7.05;;;1.55;;
39022;SDS011;25908;51.984;5.928;2023-05-23T14:04:47;7.68;;;1.48;;
39022;SDS011;25908;51.984;5.928;2023-05-23T14:07:14;6.88;;;1.58;;
39022;SDS011;25908;51.984;5.928;2023-05-23T14:09:39;5.63;;;1.73;;
39022;SDS011;25908;51.984;5.928;2023-05-23T14:12:05;7.57;;;2.33;;
39022;SDS011;25908;51.984;5.928;2023-05-23T14:14:31;6.97;;;2.00;;
39022;SDS011;25908;51.984;5.928;2023-05-23T14:16:56;8.07;;;2.20;;
39022;SDS011;25908;51.984;5.928;2023-05-23T14:19:22;6.68;;;1.83;;
39022;SDS011;25908;51.984;5.928;2023-05-23T14:21:48;8.88;;;1.73;;
39022;SDS011;25908;51.984;5.928;2023-05-23T14:24:13;8.05;;;1.70;;
39022;SDS011;25908;51.984;5.928;2023-05-23T14:26:39;6.72;;;1.67;;
39022;SDS011;25908;51.984;5.928;2023-05-23T14:29:04;10.32;;;2.08;;
39022;SDS011;25908;51.984;5.928;2023-05-23T14:31:30;9.00;;;2.22;;
39022;SDS011;25908;51.984;5.928;2023-05-23T14:33:56;6.25;;;2.10;;
39022;SDS011;25908;51.984;5.928;2023-05-23T14:36:21;7.40;;;2.22;;
39022;SDS011;25908;51.984;5.928;2023-05-23T14:38:47;6.90;;;2.55;;
39022;SDS011;25908;51.984;5.928;2023-05-23T14:41:14;8.95;;;2.00;;
39022;SDS011;25908;51.984;5.928;2023-05-23T14:43:40;7.75;;;1.77;;
39022;SDS011;25908;51.984;5.928;2023-05-23T14:46:06;8.45;;;2.28;;
39022;SDS011;25908;51.984;5.928;2023-05-23T14:48:32;8.98;;;2.40;;
39022;SDS011;25908;51.984;5.928;2023-05-23T14:50:58;8.00;;;1.88;;
39022;SDS011;25908;51.984;5.928;2023-05-23T14:53:25;8.38;;;2.00;;
39022;SDS011;25908;51.984;5.928;2023-05-23T14:55:55;9.05;;;2.35;;
39022;SDS011;25908;51.984;5.928;2023-05-23T14:58:21;7.30;;;2.55;;
39022;SDS011;25908;51.984;5.928;2023-05-23T15:00:47;10.15;;;2.38;;
39022;SDS011;25908;51.984;5.928;2023-05-23T15:03:13;4.30;;;1.40;;
39022;SDS011;25908;51.984;5.928;2023-05-23T15:05:39;10.43;;;2.63;;